createdAt,value
2019-05-20T00:02:26.114Z,4.40
2019-05-20T00:04:53.295Z,4.75
2019-05-20T00:07:22.155Z,4.40
2019-05-20T00:09:51.007Z,4.35
2019-05-20T00:12:19.623Z,4.42
2019-05-20T00:14:48.290Z,4.58
2019-05-20T00:17:16.895Z,4.45
2019-05-20T00:19:45.499Z,4.65
2019-05-20T00:22:14.058Z,4.55
2019-05-20T00:24:42.589Z,4.30
2019-05-20T00:27:11.119Z,4.47
2019-05-20T00:29:40.049Z,4.15
2019-05-20T00:32:08.603Z,4.62
2019-05-20T00:34:37.194Z,4.12
2019-05-20T00:37:05.770Z,4.28
2019-05-20T00:39:34.355Z,4.15
2019-05-20T00:42:02.930Z,4.10
2019-05-20T00:44:31.522Z,3.98
2019-05-20T00:47:00.103Z,4.17
2019-05-20T00:49:28.996Z,4.10
2019-05-20T00:51:57.582Z,3.92
2019-05-20T00:54:26.559Z,3.83
2019-05-20T00:56:55.393Z,4.03
2019-05-20T00:59:24.179Z,4.55
2019-05-20T01:01:52.908Z,4.50
2019-05-20T01:04:21.423Z,4.42
2019-05-20T01:06:50.000Z,4.55
2019-05-20T01:09:18.615Z,4.83
2019-05-20T01:11:47.550Z,4.20
2019-05-20T01:14:16.424Z,4.20
2019-05-20T01:16:45.499Z,4.20
2019-05-20T01:19:14.076Z,4.50
2019-05-20T01:21:42.680Z,3.98
2019-05-20T01:24:11.866Z,4.55
2019-05-20T01:26:40.962Z,5.45
2019-05-20T01:29:09.504Z,5.28
2019-05-20T01:31:38.095Z,5.03
2019-05-20T01:34:06.665Z,5.00
2019-05-20T01:36:35.608Z,4.58
2019-05-20T01:39:05.163Z,4.35
2019-05-20T01:41:34.109Z,4.67
2019-05-20T01:44:02.692Z,4.70
2019-05-20T01:46:31.249Z,4.83
2019-05-20T01:49:00.134Z,4.10
2019-05-20T01:51:28.954Z,5.08
2019-05-20T01:53:57.491Z,5.03
2019-05-20T01:56:26.435Z,5.33
2019-05-20T01:58:55.311Z,4.85
2019-05-20T02:01:24.211Z,4.95
2019-05-20T02:03:53.290Z,4.97
2019-05-20T02:06:22.506Z,4.65
2019-05-20T02:08:51.329Z,3.92
2019-05-20T02:11:19.951Z,4.83
2019-05-20T02:13:54.890Z,4.15
2019-05-20T02:16:23.759Z,4.72
2019-05-20T02:18:52.959Z,4.67
2019-05-20T02:21:21.938Z,4.65
2019-05-20T02:23:50.553Z,4.90
2019-05-20T02:26:19.419Z,4.28
2019-05-20T02:28:48.019Z,4.58
2019-05-20T02:31:16.955Z,4.12
2019-05-20T02:33:51.616Z,4.15
2019-05-20T02:36:17.107Z,4.78
2019-05-20T02:38:46.120Z,4.78
2019-05-20T02:41:14.748Z,4.62
2019-05-20T02:43:43.311Z,4.65
2019-05-20T02:46:12.537Z,4.97
2019-05-20T02:48:41.152Z,5.00
2019-05-20T02:51:09.790Z,4.62
2019-05-20T02:53:38.373Z,5.30
2019-05-20T02:56:06.954Z,4.78
2019-05-20T02:58:35.872Z,5.22
2019-05-20T03:01:04.422Z,6.22
2019-05-20T03:03:33.008Z,6.65
2019-05-20T03:06:01.613Z,7.35
2019-05-20T03:08:30.924Z,7.28
2019-05-20T03:10:59.477Z,7.83
2019-05-20T03:13:28.076Z,8.18
2019-05-20T03:15:56.884Z,8.15
2019-05-20T03:18:26.078Z,8.88
2019-05-20T03:20:55.158Z,9.00
2019-05-20T03:23:23.763Z,8.65
2019-05-20T03:25:52.543Z,8.23
2019-05-20T03:28:21.106Z,7.28
2019-05-20T03:30:50.346Z,7.37
2019-05-20T03:33:19.283Z,7.70
2019-05-20T03:35:48.112Z,8.68
2019-05-20T03:38:17.004Z,8.00
2019-05-20T03:40:45.560Z,7.50
2019-05-20T03:43:14.481Z,8.83
2019-05-20T03:45:43.149Z,10.72
2019-05-20T03:48:11.731Z,10.58
2019-05-20T03:50:40.308Z,12.03
2019-05-20T03:53:09.278Z,11.48
2019-05-20T03:55:38.301Z,12.75
2019-05-20T03:58:06.940Z,12.53
2019-05-20T04:00:43.508Z,12.90
2019-05-20T04:03:12.311Z,12.68
2019-05-20T04:05:40.922Z,14.98
2019-05-20T04:08:10.264Z,15.25
2019-05-20T04:10:38.819Z,16.35
2019-05-20T04:13:07.395Z,15.90
2019-05-20T04:15:35.988Z,16.42
2019-05-20T04:18:04.607Z,17.05
2019-05-20T04:20:33.495Z,17.40
2019-05-20T04:23:02.240Z,17.50
2019-05-20T04:25:31.295Z,18.85
2019-05-20T04:28:00.251Z,19.27
2019-05-20T04:30:29.150Z,18.73
2019-05-20T04:32:57.713Z,20.23
2019-05-20T04:35:26.299Z,20.62
2019-05-20T04:37:55.250Z,22.40
2019-05-20T04:40:23.875Z,24.60
2019-05-20T04:42:52.454Z,24.52
2019-05-20T04:45:21.052Z,26.25
2019-05-20T04:47:49.956Z,25.82
2019-05-20T04:50:18.984Z,26.95
2019-05-20T04:52:48.518Z,26.82
2019-05-20T04:55:17.119Z,28.73
2019-05-20T04:57:46.015Z,30.12
2019-05-20T05:00:14.787Z,29.05
2019-05-20T05:02:44.056Z,28.50
2019-05-20T05:05:12.923Z,29.60
2019-05-20T05:07:41.892Z,29.20
2019-05-20T05:10:10.473Z,27.45
2019-05-20T05:12:39.043Z,28.60
2019-05-20T05:15:08.165Z,29.18
2019-05-20T05:17:37.263Z,29.52
2019-05-20T05:20:05.958Z,30.23
2019-05-20T05:22:35.864Z,31.15
2019-05-20T05:25:05.086Z,30.80
2019-05-20T05:27:33.631Z,31.15
2019-05-20T05:30:02.845Z,31.87
2019-05-20T05:32:41.953Z,32.88
2019-05-20T05:35:11.816Z,32.35
2019-05-20T05:37:40.456Z,29.80
2019-05-20T05:40:09.031Z,29.25
2019-05-20T05:42:37.614Z,30.60
2019-05-20T05:45:06.215Z,28.17
2019-05-20T05:47:35.121Z,30.43
2019-05-20T05:50:03.667Z,30.30
2019-05-20T05:52:33.291Z,27.15
2019-05-20T05:55:02.098Z,26.20
2019-05-20T05:57:30.651Z,24.60
2019-05-20T05:59:59.231Z,24.45
2019-05-20T06:02:27.827Z,23.83
2019-05-20T06:04:56.626Z,24.65
2019-05-20T06:07:41.212Z,25.10
2019-05-20T06:10:10.081Z,25.65
2019-05-20T06:12:38.880Z,26.37
2019-05-20T06:15:07.765Z,27.10
2019-05-20T06:17:36.655Z,28.10
2019-05-20T06:20:05.451Z,28.55
2019-05-20T06:22:34.235Z,28.27
2019-05-20T06:25:03.041Z,29.07
2019-05-20T06:27:32.220Z,29.63
2019-05-20T06:30:00.771Z,31.00
2019-05-20T06:32:29.600Z,30.72
2019-05-20T06:34:58.125Z,32.38
2019-05-20T06:37:28.324Z,32.90
2019-05-20T06:39:57.187Z,32.42
2019-05-20T06:42:26.395Z,31.33
2019-05-20T06:44:57.397Z,32.65
2019-05-20T06:47:26.214Z,30.52
2019-05-20T06:49:54.771Z,31.93
2019-05-20T06:52:35.346Z,31.05
2019-05-20T06:54:53.883Z,31.93
2019-05-20T06:57:24.013Z,31.75
2019-05-20T06:59:53.026Z,30.52
2019-05-20T07:02:21.605Z,28.87
2019-05-20T07:04:50.160Z,30.10
2019-05-20T07:07:21.351Z,27.15
2019-05-20T07:09:49.178Z,30.32
2019-05-20T07:12:18.151Z,28.10
2019-05-20T07:14:46.724Z,29.12
2019-05-20T07:17:15.262Z,29.85
2019-05-20T07:19:44.051Z,30.50
2019-05-20T07:22:32.166Z,28.12
2019-05-20T07:25:20.268Z,29.50
2019-05-20T07:28:08.347Z,30.88
2019-05-20T07:30:56.681Z,30.52
2019-05-20T07:33:44.825Z,31.07
2019-05-20T07:36:32.686Z,31.57
2019-05-20T07:39:20.852Z,32.15
2019-05-20T07:42:10.383Z,31.55
2019-05-20T07:44:58.227Z,31.35
2019-05-20T07:47:46.087Z,31.33
2019-05-20T07:50:34.535Z,32.33
2019-05-20T07:53:22.711Z,31.62
2019-05-20T07:59:26.163Z,31.60
2019-05-20T08:02:14.295Z,30.72
2019-05-20T08:05:02.513Z,31.48
2019-05-20T08:07:52.764Z,30.25
2019-05-20T08:10:41.540Z,29.72
2019-05-20T08:13:29.639Z,28.77
2019-05-20T08:16:17.491Z,28.07
2019-05-20T08:18:58.732Z,28.62
2019-05-20T08:21:39.569Z,27.77
2019-05-20T08:24:20.356Z,28.47
2019-05-20T08:27:00.764Z,28.55
2019-05-20T08:29:41.794Z,27.25
2019-05-20T08:32:22.745Z,26.45
2019-05-20T08:35:04.006Z,25.88
2019-05-20T08:37:46.031Z,25.32
2019-05-20T08:40:27.239Z,24.50
2019-05-20T08:43:08.531Z,24.85
2019-05-20T08:45:50.026Z,23.98
2019-05-20T08:48:30.487Z,23.95
2019-05-20T08:51:11.048Z,23.62
2019-05-20T08:53:52.124Z,22.48
2019-05-20T08:56:33.054Z,22.30
2019-05-20T08:59:14.324Z,23.18
2019-05-20T09:01:55.610Z,22.65
2019-05-20T09:04:36.231Z,22.40
2019-05-20T09:07:16.957Z,22.48
2019-05-20T09:09:58.107Z,21.23
2019-05-20T09:12:38.552Z,20.77
2019-05-20T09:15:19.493Z,20.27
2019-05-20T09:18:00.444Z,19.73
2019-05-20T09:20:40.911Z,20.17
2019-05-20T09:31:52.832Z,20.32
2019-05-20T09:37:22.745Z,19.52
2019-05-20T09:40:06.379Z,19.62
2019-05-20T09:42:47.241Z,19.02
2019-05-20T09:45:27.718Z,18.23
2019-05-20T09:48:08.755Z,17.65
2019-05-20T09:50:50.137Z,17.80
2019-05-20T09:53:30.424Z,18.23
2019-05-20T09:56:11.387Z,17.70
2019-05-20T09:58:52.526Z,18.70
2019-05-20T10:01:33.359Z,17.77
2019-05-20T10:07:00.515Z,16.70
2019-05-20T10:09:41.320Z,16.05
2019-05-20T10:12:22.431Z,15.15
2019-05-20T10:15:02.951Z,16.17
2019-05-20T10:17:43.916Z,15.30
2019-05-20T10:20:30.832Z,14.50
2019-05-20T10:23:15.653Z,15.85
2019-05-20T10:25:53.836Z,15.63
2019-05-20T10:28:34.250Z,14.68
2019-05-20T10:31:18.028Z,16.60
2019-05-20T10:47:51.980Z,17.37
2019-05-20T10:50:35.996Z,16.52
2019-05-20T11:21:03.556Z,12.58
2019-05-20T11:32:23.533Z,12.73
2019-05-20T11:35:04.130Z,14.40
2019-05-20T11:37:45.156Z,15.28
2019-05-20T11:40:25.462Z,15.03
2019-05-20T11:43:06.323Z,16.20
2019-05-20T11:45:47.204Z,15.43
2019-05-20T11:48:27.758Z,18.50
2019-05-20T11:51:08.647Z,20.00
2019-05-20T11:53:48.947Z,19.60
2019-05-20T11:56:29.894Z,20.88
2019-05-20T11:59:11.315Z,20.70
2019-05-20T12:01:51.977Z,20.80
2019-05-20T12:04:33.391Z,21.23
2019-05-20T12:07:13.805Z,20.65
2019-05-20T12:09:54.727Z,20.68
2019-05-20T12:12:35.097Z,21.82
2019-05-20T12:15:15.884Z,24.30
2019-05-20T12:17:56.956Z,24.05
2019-05-20T12:20:37.907Z,23.75
2019-05-20T12:23:18.300Z,25.52
2019-05-20T12:25:59.383Z,24.18
2019-05-20T12:28:40.508Z,24.77
2019-05-20T12:31:20.987Z,24.70
2019-05-20T12:34:02.158Z,25.48
2019-05-20T12:36:42.858Z,26.85
2019-05-20T12:39:23.429Z,27.05
2019-05-20T12:42:04.949Z,26.33
2019-05-20T12:44:46.451Z,26.60
2019-05-20T12:47:25.856Z,27.27
2019-05-20T12:50:13.947Z,28.62
2019-05-20T12:53:02.224Z,28.90
2019-05-20T12:55:51.623Z,28.25
2019-05-20T12:58:39.723Z,26.37
2019-05-20T13:01:27.559Z,27.17
2019-05-20T13:04:15.705Z,28.45
2019-05-20T13:12:51.420Z,28.23
2019-05-20T13:15:39.271Z,27.52
2019-05-20T13:18:27.110Z,30.20
2019-05-20T13:21:07.595Z,29.37
2019-05-20T13:23:36.498Z,29.72
2019-05-20T13:26:05.132Z,30.45
2019-05-20T13:28:33.703Z,30.55
2019-05-20T13:31:02.312Z,29.95
2019-05-20T13:33:31.198Z,31.82
2019-05-20T13:35:59.792Z,32.58
2019-05-20T13:38:28.992Z,31.60
2019-05-20T13:40:57.573Z,30.77
2019-05-20T13:43:26.638Z,30.12
2019-05-20T13:45:55.226Z,34.48
2019-05-20T13:48:23.851Z,31.85
2019-05-20T13:50:52.400Z,30.92
2019-05-20T13:53:21.618Z,31.55
2019-05-20T13:55:50.512Z,34.30
2019-05-20T13:58:19.081Z,33.73
2019-05-20T14:00:49.012Z,33.92
2019-05-20T14:03:17.852Z,34.38
2019-05-20T14:05:46.507Z,35.83
2019-05-20T14:08:15.498Z,34.33
2019-05-20T14:10:44.046Z,35.48
2019-05-20T14:13:12.659Z,35.15
2019-05-20T14:15:41.810Z,36.73
2019-05-20T14:18:10.400Z,36.93
2019-05-20T14:20:40.346Z,37.10
2019-05-20T14:23:08.875Z,35.95
2019-05-20T14:25:37.795Z,37.33
2019-05-20T14:28:06.371Z,37.90
2019-05-20T14:30:34.979Z,38.53
2019-05-20T14:33:04.050Z,42.25
2019-05-20T14:35:32.942Z,40.92
2019-05-20T14:38:01.865Z,42.08
2019-05-20T14:40:30.430Z,40.50
2019-05-20T14:42:59.054Z,41.30
2019-05-20T14:45:28.018Z,41.45
2019-05-20T14:47:57.353Z,42.00
2019-05-20T14:50:25.990Z,41.65
2019-05-20T14:52:54.574Z,40.03
2019-05-20T14:55:23.517Z,40.70
2019-05-20T14:57:52.097Z,38.73
2019-05-20T15:00:21.051Z,38.88
2019-05-20T15:02:49.959Z,39.30
2019-05-20T15:05:18.544Z,39.03
2019-05-20T15:07:47.108Z,39.27
2019-05-20T15:10:15.678Z,41.28
2019-05-20T15:12:44.598Z,38.92
2019-05-20T15:15:13.478Z,39.58
2019-05-20T15:17:42.383Z,40.98
2019-05-20T15:20:10.956Z,40.03
2019-05-20T15:22:39.536Z,39.38
2019-05-20T15:25:08.127Z,40.33
2019-05-20T15:27:36.690Z,39.03
2019-05-20T15:30:06.219Z,38.73
2019-05-20T15:32:35.418Z,39.53
2019-05-20T15:35:04.149Z,37.25
2019-05-20T15:37:33.103Z,39.38
2019-05-20T15:40:01.652Z,38.60
2019-05-20T15:42:30.646Z,38.58
2019-05-20T15:44:59.662Z,38.98
2019-05-20T15:47:28.230Z,42.20
2019-05-20T15:49:57.153Z,41.02
2019-05-20T15:52:25.987Z,41.95
2019-05-20T15:54:54.595Z,41.28
2019-05-20T15:57:24.488Z,40.10
2019-05-20T15:59:53.095Z,41.80
2019-05-20T16:02:21.682Z,41.15
2019-05-20T16:04:50.892Z,42.48
2019-05-20T16:07:19.991Z,40.98
2019-05-20T16:09:48.599Z,40.35
2019-05-20T16:12:18.096Z,41.20
2019-05-20T16:14:46.992Z,41.98
2019-05-20T16:17:15.542Z,42.40
2019-05-20T16:19:44.347Z,40.35
2019-05-20T16:22:12.922Z,42.08
2019-05-20T16:24:45.182Z,42.35
2019-05-20T16:27:12.139Z,42.73
2019-05-20T16:29:40.826Z,42.10
2019-05-20T16:32:09.763Z,41.55
2019-05-20T16:34:38.396Z,43.17
2019-05-20T16:37:06.975Z,42.67
2019-05-20T16:39:35.976Z,42.75
2019-05-20T16:42:05.059Z,41.10
2019-05-20T16:44:33.661Z,40.75
2019-05-20T16:47:02.271Z,41.80
2019-05-20T16:49:31.385Z,41.55
2019-05-20T16:52:00.020Z,40.95
2019-05-20T16:54:28.645Z,43.13
2019-05-20T16:56:57.515Z,41.30
2019-05-20T16:59:26.099Z,43.78
2019-05-20T17:01:56.528Z,41.73
2019-05-20T17:04:25.468Z,40.60
2019-05-20T17:06:54.225Z,40.73
2019-05-20T17:09:23.196Z,41.05
2019-05-20T17:11:52.100Z,40.85
2019-05-20T17:14:21.200Z,39.60
2019-05-20T17:16:49.754Z,39.98
2019-05-20T17:19:18.677Z,39.35
2019-05-20T17:21:47.226Z,40.20
2019-05-20T17:24:15.764Z,40.17
2019-05-20T17:26:44.392Z,39.30
2019-05-20T17:29:13.303Z,38.23
2019-05-20T17:31:41.872Z,39.23
2019-05-20T17:34:10.491Z,37.93
2019-05-20T17:36:39.430Z,38.48
2019-05-20T17:39:08.354Z,38.35
2019-05-20T17:41:37.461Z,38.70
2019-05-20T17:44:06.339Z,37.75
2019-05-20T17:46:35.235Z,38.02
2019-05-20T17:49:03.805Z,36.45
2019-05-20T17:51:32.391Z,37.45
2019-05-20T17:54:00.998Z,37.63
2019-05-20T17:56:29.550Z,37.30
2019-05-20T17:58:58.167Z,36.10
2019-05-20T18:01:26.890Z,36.38
2019-05-20T18:03:55.507Z,35.78
2019-05-20T18:06:24.419Z,35.52
2019-05-20T18:08:54.908Z,35.30
2019-05-20T18:11:23.515Z,36.05
2019-05-20T18:13:52.434Z,36.45
2019-05-20T18:16:21.234Z,35.60
2019-05-20T18:18:49.862Z,36.70
2019-05-20T18:21:18.783Z,38.05
2019-05-20T18:23:47.710Z,35.60
2019-05-20T18:26:16.682Z,37.17
2019-05-20T18:28:45.758Z,35.63
2019-05-20T18:31:29.682Z,36.40
2019-05-20T18:33:45.507Z,39.42
2019-05-20T18:36:14.054Z,37.93
2019-05-20T18:38:42.631Z,39.40
2019-05-20T18:41:11.555Z,39.33
2019-05-20T18:43:40.110Z,37.83
2019-05-20T18:46:08.748Z,39.85
2019-05-20T18:48:37.707Z,39.78
2019-05-20T18:51:07.219Z,39.10
2019-05-20T18:53:36.114Z,40.12
2019-05-20T18:56:04.718Z,40.52
2019-05-20T18:58:33.346Z,40.25
2019-05-20T19:01:02.595Z,41.00
2019-05-20T19:03:31.701Z,40.03
2019-05-20T19:06:00.449Z,40.83
2019-05-20T19:08:29.111Z,42.15
2019-05-20T19:10:57.765Z,42.03
2019-05-20T19:13:27.038Z,41.75
2019-05-20T19:15:56.440Z,43.23
2019-05-20T19:18:25.002Z,43.28
2019-05-20T19:20:54.157Z,42.23
2019-05-20T19:23:22.691Z,43.20
2019-05-20T19:25:51.322Z,44.27
2019-05-20T19:28:20.635Z,42.38
2019-05-20T19:30:49.210Z,42.13
2019-05-20T19:33:18.647Z,43.05
2019-05-20T19:35:47.335Z,41.75
2019-05-20T19:38:16.289Z,42.08
2019-05-20T19:40:45.207Z,41.53
2019-05-20T19:43:14.103Z,43.73
2019-05-20T19:45:43.047Z,40.98
2019-05-20T19:48:11.724Z,40.78
2019-05-20T19:50:40.414Z,42.55
2019-05-20T19:53:09.391Z,39.90
2019-05-20T19:55:38.413Z,40.12
2019-05-20T19:58:07.352Z,41.50
2019-05-20T20:00:35.931Z,40.55
2019-05-20T20:03:04.507Z,40.00
2019-05-20T20:05:33.414Z,40.88
2019-05-20T20:08:02.159Z,40.80
2019-05-20T20:10:31.091Z,40.50
2019-05-20T20:12:59.663Z,41.20
2019-05-20T20:15:28.235Z,41.37
2019-05-20T20:17:56.815Z,41.40
2019-05-20T20:20:26.038Z,39.75
2019-05-20T20:22:54.943Z,41.15
2019-05-20T20:25:24.034Z,40.80
2019-05-20T20:27:52.586Z,41.73
2019-05-20T20:30:21.491Z,42.10
2019-05-20T20:32:50.070Z,44.93
2019-05-20T20:35:18.895Z,43.52
2019-05-20T20:37:48.379Z,45.28
2019-05-20T20:40:16.939Z,42.88
2019-05-20T20:42:45.578Z,45.52
2019-05-20T20:45:14.526Z,45.30
2019-05-20T20:47:43.431Z,46.42
2019-05-20T20:50:12.631Z,47.78
2019-05-20T20:52:41.192Z,46.90
2019-05-20T20:55:09.782Z,47.90
2019-05-20T20:57:38.692Z,48.02
2019-05-20T21:00:08.019Z,48.10
2019-05-20T21:02:36.659Z,46.98
2019-05-20T21:05:05.574Z,48.85
2019-05-20T21:07:35.178Z,48.80
2019-05-20T21:10:03.894Z,47.45
2019-05-20T21:12:32.903Z,47.33
2019-05-20T21:15:02.097Z,46.18
2019-05-20T21:17:31.140Z,46.70
2019-05-20T21:20:00.041Z,46.23
2019-05-20T21:22:28.611Z,45.10
2019-05-20T21:24:57.499Z,45.73
2019-05-20T21:27:26.702Z,45.60
2019-05-20T21:29:55.663Z,47.70
2019-05-20T21:32:24.587Z,47.45
2019-05-20T21:34:53.794Z,49.83
2019-05-20T21:37:22.358Z,47.98
2019-05-20T21:39:50.950Z,47.78
2019-05-20T21:42:19.519Z,48.40
2019-05-20T21:44:48.112Z,48.75
2019-05-20T21:47:16.686Z,49.60
2019-05-20T21:49:45.611Z,49.30
2019-05-20T21:52:14.494Z,50.52
2019-05-20T21:54:43.062Z,49.90
2019-05-20T21:57:11.636Z,52.60
2019-05-20T21:59:40.231Z,50.43
2019-05-20T22:02:08.985Z,49.75
2019-05-20T22:04:37.607Z,48.95
2019-05-20T22:07:06.177Z,50.28
2019-05-20T22:09:34.779Z,47.62
2019-05-20T22:12:03.350Z,48.63
2019-05-20T22:14:32.242Z,49.40
2019-05-20T22:17:00.825Z,49.05
2019-05-20T22:19:29.725Z,49.77
2019-05-20T22:22:06.579Z,49.23
2019-05-20T22:24:35.110Z,49.38
2019-05-20T22:27:03.883Z,49.73
2019-05-20T22:29:33.085Z,48.52
2019-05-20T22:32:02.281Z,49.95
2019-05-20T22:34:31.179Z,48.50
2019-05-20T22:37:00.371Z,48.95
2019-05-20T22:39:29.572Z,48.15
2019-05-20T22:41:58.127Z,50.05
2019-05-20T22:44:27.046Z,51.58
2019-05-20T22:46:55.604Z,49.85
2019-05-20T22:49:24.219Z,49.48
2019-05-20T22:51:52.972Z,50.40
2019-05-20T22:54:21.556Z,50.52
2019-05-20T22:56:50.762Z,50.33
2019-05-20T22:59:19.354Z,50.20
2019-05-20T23:01:47.939Z,50.63
2019-05-20T23:04:16.513Z,48.55
2019-05-20T23:06:45.431Z,48.73
2019-05-20T23:09:14.981Z,48.95
2019-05-20T23:11:44.646Z,49.53
2019-05-20T23:14:13.507Z,51.20
2019-05-20T23:16:42.094Z,49.40
2019-05-20T23:19:10.691Z,50.33
2019-05-20T23:21:39.613Z,49.03
2019-05-20T23:24:08.154Z,51.68
2019-05-20T23:26:36.747Z,49.30
2019-05-20T23:29:05.319Z,48.28
2019-05-20T23:31:34.246Z,48.50
2019-05-20T23:34:12.207Z,47.78
2019-05-20T23:36:33.206Z,48.30
2019-05-20T23:39:01.803Z,47.43
2019-05-20T23:41:30.411Z,46.63
2019-05-20T23:43:58.970Z,46.90
2019-05-20T23:46:27.562Z,45.03
2019-05-20T23:48:56.414Z,46.53
2019-05-20T23:51:25.682Z,45.03
2019-05-20T23:53:54.559Z,47.03
2019-05-20T23:56:23.459Z,46.45
2019-05-20T23:58:52.315Z,45.40
